< < Back
Terminal Aerodrome Forecast


Current Version              Previous Versions:   1  2  3  4  5  6  7  8  9  

Terminal Aerodrome Forecast

735
FTUS42 KGSP 281723
TAFAND
TAF
KAND 281723Z 2818/2918 09009KT P6SM SCT040 SCT250
     FM290200 09003KT P6SM FEW250
     FM290800 00000KT P6SM SCT017
     FM291300 08004KT P6SM BKN024=

Latest METAR

429
SAUS70 KWBC 290600 RRD
MTRAND
METAR KAND 290556Z AUTO 00000KT 10SM CLR 21/18 A3019 RMK AO2 SLP214
T02110178 10256 20200 50003


USA.gov is the U.S. government's official web portal to all federal, state and local government web resources and services.